createdAt,value
2018-03-11T00:00:50.516Z,15.47
2018-03-11T00:03:18.996Z,16.10
2018-03-11T00:05:46.460Z,16.77
2018-03-11T00:08:13.928Z,18.52
2018-03-11T00:10:41.385Z,15.07
2018-03-11T00:13:08.868Z,15.57
2018-03-11T00:15:36.317Z,14.83
2018-03-11T00:18:03.797Z,16.50
2018-03-11T00:20:31.248Z,15.75
2018-03-11T00:22:58.712Z,18.52
2018-03-11T00:25:26.828Z,15.93
2018-03-11T00:27:54.305Z,17.02
2018-03-11T00:30:22.555Z,17.27
2018-03-11T00:32:50.013Z,16.60
2018-03-11T00:35:17.456Z,18.40
2018-03-11T00:37:45.220Z,17.60
2018-03-11T00:40:12.660Z,16.20
2018-03-11T00:42:41.845Z,16.12
2018-03-11T00:45:09.304Z,16.23
2018-03-11T00:47:36.891Z,16.97
2018-03-11T00:50:04.369Z,16.37
2018-03-11T00:52:31.825Z,16.70
2018-03-11T00:55:05.114Z,17.60
2018-03-11T00:57:32.554Z,16.80
2018-03-11T01:00:00.492Z,17.05
2018-03-11T01:02:27.990Z,18.10
2018-03-11T01:04:55.459Z,17.92
2018-03-11T01:07:22.941Z,16.90
2018-03-11T01:09:50.377Z,15.68
2018-03-11T01:12:17.920Z,18.00
2018-03-11T01:14:45.922Z,17.37
2018-03-11T01:17:13.356Z,17.47
2018-03-11T01:19:40.816Z,16.83
2018-03-11T01:22:09.028Z,21.75
2018-03-11T01:24:36.464Z,20.20
2018-03-11T01:27:03.924Z,19.23
2018-03-11T01:29:31.656Z,19.23
2018-03-11T01:31:59.422Z,19.90
2018-03-11T01:34:26.880Z,17.80
2018-03-11T01:36:54.344Z,19.58
2018-03-11T01:39:22.499Z,18.80
2018-03-11T01:41:49.957Z,18.12
2018-03-11T01:44:17.431Z,20.47
2018-03-11T01:46:45.388Z,18.98
2018-03-11T01:49:13.042Z,19.63
2018-03-11T01:51:40.813Z,20.07
2018-03-11T01:54:08.280Z,19.03
2018-03-11T01:56:36.331Z,20.83
2018-03-11T01:59:03.864Z,21.87
2018-03-11T02:01:31.345Z,22.00
2018-03-11T02:03:58.808Z,19.30
2018-03-11T02:06:26.276Z,21.03
2018-03-11T02:08:53.740Z,22.33
2018-03-11T02:11:21.699Z,20.87
2018-03-11T02:13:49.906Z,20.80
2018-03-11T02:16:17.348Z,21.90
2018-03-11T02:18:44.816Z,18.17
2018-03-11T02:21:14.064Z,21.30
2018-03-11T02:23:41.506Z,21.53
2018-03-11T02:26:09.622Z,21.55
2018-03-11T02:28:37.065Z,21.30
2018-03-11T02:31:04.833Z,20.23
2018-03-11T02:33:32.280Z,19.47
2018-03-11T02:36:00.049Z,21.62
2018-03-11T02:38:28.421Z,22.80
2018-03-11T02:40:55.902Z,21.73
2018-03-11T02:43:23.356Z,18.50
2018-03-11T02:45:50.805Z,20.00
2018-03-11T02:48:18.274Z,16.35
2018-03-11T02:50:45.719Z,12.10
2018-03-11T02:53:13.185Z,15.77
2018-03-11T02:55:40.636Z,15.77
2018-03-11T02:58:08.084Z,18.40
2018-03-11T03:00:36.668Z,18.87
2018-03-11T03:03:04.113Z,21.70
2018-03-11T03:05:31.593Z,19.33
2018-03-11T03:07:59.068Z,19.17
2018-03-11T03:10:26.520Z,19.50
2018-03-11T03:12:53.983Z,21.43
2018-03-11T03:15:21.452Z,20.50
2018-03-11T03:17:48.908Z,21.10
2018-03-11T03:20:16.368Z,21.80
2018-03-11T03:22:43.820Z,22.20
2018-03-11T03:25:11.272Z,21.50
2018-03-11T03:27:39.410Z,21.17
2018-03-11T03:30:06.881Z,21.87
2018-03-11T03:32:34.353Z,15.80
2018-03-11T03:35:01.797Z,16.92
2018-03-11T03:37:29.264Z,16.12
2018-03-11T03:39:56.908Z,16.27
2018-03-11T03:42:24.392Z,14.20
2018-03-11T03:44:52.790Z,16.85
2018-03-11T03:47:21.013Z,16.15
2018-03-11T03:49:48.621Z,16.33
2018-03-11T03:52:16.088Z,18.23
2018-03-11T03:54:43.532Z,18.87
2018-03-11T03:57:10.978Z,18.53
2018-03-11T03:59:38.437Z,18.17
2018-03-11T04:02:07.476Z,16.77
2018-03-11T04:04:34.957Z,16.58
2018-03-11T04:07:02.408Z,19.90
2018-03-11T04:09:29.848Z,18.00
2018-03-11T04:11:57.632Z,17.83
2018-03-11T04:14:25.624Z,15.38
2018-03-11T04:16:53.095Z,15.93
2018-03-11T04:19:20.549Z,16.20
2018-03-11T04:21:48.000Z,17.20
2018-03-11T04:24:15.458Z,16.83
2018-03-11T04:26:42.916Z,17.20
2018-03-11T04:29:10.362Z,19.42
2018-03-11T04:31:37.829Z,20.33
2018-03-11T04:34:05.288Z,21.43
2018-03-11T04:36:32.796Z,22.10
2018-03-11T04:39:00.256Z,20.52
2018-03-11T04:41:28.628Z,20.58
2018-03-11T04:43:59.216Z,18.27
2018-03-11T04:46:26.816Z,19.35
2018-03-11T04:48:54.271Z,19.20
2018-03-11T04:51:21.871Z,17.73
2018-03-11T04:53:49.317Z,16.37
2018-03-11T04:56:16.765Z,16.24
2018-03-11T04:58:47.925Z,18.92
2018-03-11T05:01:15.408Z,19.77
2018-03-11T05:03:42.858Z,19.03
2018-03-11T05:06:10.321Z,19.67
2018-03-11T05:08:37.776Z,22.05
2018-03-11T05:11:05.250Z,23.23
2018-03-11T05:13:32.677Z,25.70
2018-03-11T05:16:04.732Z,26.00
2018-03-11T05:18:33.088Z,26.80
2018-03-11T05:21:00.532Z,21.60
2018-03-11T05:23:28.001Z,18.42
2018-03-11T05:25:55.476Z,20.57
2018-03-11T05:28:22.933Z,19.65
2018-03-11T05:30:51.905Z,19.70
2018-03-11T05:33:19.353Z,21.47
2018-03-11T05:35:46.827Z,19.80
2018-03-11T05:38:14.269Z,20.00
2018-03-11T05:40:41.735Z,21.43
2018-03-11T05:43:09.180Z,21.50
2018-03-11T05:45:40.672Z,21.73
2018-03-11T05:48:08.116Z,22.48
2018-03-11T05:50:35.597Z,23.67
2018-03-11T05:53:03.069Z,26.10
2018-03-11T05:55:30.530Z,24.83
2018-03-11T05:57:57.968Z,21.55
2018-03-11T06:00:25.440Z,22.00
2018-03-11T06:02:52.880Z,16.57
2018-03-11T06:05:20.324Z,17.98
2018-03-11T06:07:47.888Z,20.08
2018-03-11T06:10:15.444Z,19.13
2018-03-11T06:12:43.848Z,19.42
2018-03-11T06:15:14.148Z,25.10
2018-03-11T06:17:41.612Z,24.47
2018-03-11T06:20:09.069Z,25.40
2018-03-11T06:22:36.784Z,25.92
2018-03-11T06:25:04.228Z,25.80
2018-03-11T06:27:31.701Z,24.93
2018-03-11T06:29:59.359Z,23.10
2018-03-11T06:32:27.621Z,25.05
2018-03-11T06:34:55.044Z,23.13
2018-03-11T06:37:22.563Z,22.60
2018-03-11T06:39:50.008Z,23.80
2018-03-11T06:42:17.625Z,22.33
2018-03-11T06:44:45.107Z,23.70
2018-03-11T06:47:12.557Z,23.90
2018-03-11T06:49:41.688Z,22.83
2018-03-11T06:52:09.192Z,21.58
2018-03-11T06:54:36.829Z,20.65
2018-03-11T06:57:04.597Z,21.83
2018-03-11T06:59:32.056Z,21.10
2018-03-11T07:02:00.448Z,25.45
2018-03-11T07:04:28.197Z,24.00
2018-03-11T07:06:55.646Z,23.70
2018-03-11T07:09:23.131Z,23.20
2018-03-11T07:11:50.888Z,24.37
2018-03-11T07:14:18.346Z,22.90
2018-03-11T07:16:49.488Z,24.92
2018-03-11T07:19:16.932Z,22.98
2018-03-11T07:21:44.457Z,23.50
2018-03-11T07:24:11.907Z,23.63
2018-03-11T07:26:39.441Z,25.03
2018-03-11T07:29:07.658Z,21.42
2018-03-11T07:31:35.149Z,21.05
2018-03-11T07:34:03.516Z,22.40
2018-03-11T07:36:30.991Z,20.80
2018-03-11T07:38:58.497Z,18.90
2018-03-11T07:41:25.963Z,19.33
2018-03-11T07:43:53.456Z,18.00
2018-03-11T07:46:20.926Z,18.55
2018-03-11T07:48:48.372Z,17.70
2018-03-11T07:51:15.828Z,17.10
2018-03-11T07:53:43.293Z,20.67
2018-03-11T07:56:11.486Z,20.50
2018-03-11T07:58:39.048Z,18.70
2018-03-11T08:01:06.510Z,18.73
2018-03-11T08:03:33.997Z,18.40
2018-03-11T08:06:01.472Z,16.58
2018-03-11T08:08:28.954Z,18.33
2018-03-11T08:10:56.432Z,18.67
2018-03-11T08:13:23.937Z,17.55
2018-03-11T08:15:51.613Z,17.70
2018-03-11T08:18:26.233Z,16.63
2018-03-11T08:20:53.732Z,15.80
2018-03-11T08:23:21.289Z,14.93
2018-03-11T08:25:49.008Z,14.83
2018-03-11T08:28:16.439Z,12.87
2018-03-11T08:30:44.836Z,11.68
2018-03-11T08:33:12.329Z,10.23
2018-03-11T08:35:39.947Z,11.23
2018-03-11T08:38:07.438Z,11.57
2018-03-11T08:40:34.902Z,10.73
2018-03-11T08:43:02.449Z,9.83
2018-03-11T08:45:29.912Z,9.70
2018-03-11T08:47:57.365Z,9.80
2018-03-11T08:50:24.836Z,9.88
2018-03-11T08:52:52.309Z,9.13
2018-03-11T08:55:20.035Z,8.70
2018-03-11T08:57:47.858Z,8.38
2018-03-11T09:00:15.521Z,7.80
2018-03-11T09:02:42.958Z,9.23
2018-03-11T09:05:10.472Z,7.90
2018-03-11T09:07:37.959Z,7.57
2018-03-11T09:10:07.884Z,7.60
2018-03-11T09:12:35.340Z,6.70
2018-03-11T09:15:02.790Z,7.12
2018-03-11T09:17:30.264Z,8.10
2018-03-11T09:19:57.689Z,7.30
2018-03-11T09:22:25.173Z,8.20
2018-03-11T09:24:52.620Z,7.37
2018-03-11T09:27:21.157Z,6.72
2018-03-11T09:29:48.691Z,6.97
2018-03-11T09:32:16.135Z,7.17
2018-03-11T09:34:44.437Z,5.90
2018-03-11T09:37:11.920Z,6.70
2018-03-11T09:39:39.981Z,6.62
2018-03-11T09:42:07.477Z,5.40
2018-03-11T09:44:34.914Z,5.40
2018-03-11T09:47:02.377Z,5.97
2018-03-11T09:49:29.832Z,6.20
2018-03-11T09:51:57.299Z,6.12
2018-03-11T09:54:24.853Z,6.20
2018-03-11T09:56:52.315Z,6.07
2018-03-11T09:59:19.757Z,5.20
2018-03-11T10:01:47.281Z,5.65
2018-03-11T10:04:14.928Z,5.50
2018-03-11T10:06:42.489Z,6.03
2018-03-11T10:09:11.088Z,5.37
2018-03-11T10:11:39.331Z,5.53
2018-03-11T10:14:07.587Z,4.52
2018-03-11T10:16:35.048Z,5.27
2018-03-11T10:19:02.658Z,5.27
2018-03-11T10:21:30.137Z,4.63
2018-03-11T10:23:57.713Z,4.17
2018-03-11T10:26:25.168Z,4.37
2018-03-11T10:28:52.608Z,4.50
2018-03-11T10:31:21.024Z,4.00
2018-03-11T10:33:48.464Z,4.87
2018-03-11T10:36:16.699Z,3.93
2018-03-11T10:38:44.140Z,3.95
2018-03-11T10:41:12.047Z,3.50
2018-03-11T10:43:40.410Z,3.90
2018-03-11T10:46:07.884Z,4.10
2018-03-11T10:48:35.349Z,4.83
2018-03-11T10:51:03.114Z,4.60
2018-03-11T10:53:30.548Z,3.90
2018-03-11T10:55:58.016Z,4.75
2018-03-11T10:58:25.501Z,3.50
2018-03-11T11:00:54.787Z,4.10
2018-03-11T11:03:28.186Z,4.60
2018-03-11T11:05:55.644Z,3.90
2018-03-11T11:08:24.970Z,4.17
2018-03-11T11:10:52.508Z,5.00
2018-03-11T11:13:20.052Z,4.50
2018-03-11T11:15:47.509Z,4.72
2018-03-11T11:18:14.969Z,4.23
2018-03-11T11:20:42.443Z,3.17
2018-03-11T11:23:14.493Z,4.80
2018-03-11T11:25:42.012Z,3.67
2018-03-11T11:28:09.509Z,4.17
2018-03-11T11:30:37.032Z,3.67
2018-03-11T11:33:04.527Z,3.25
2018-03-11T11:35:37.100Z,4.30
2018-03-11T11:38:04.537Z,4.10
2018-03-11T11:40:31.980Z,3.73
2018-03-11T11:42:59.472Z,3.63
2018-03-11T11:45:27.012Z,3.20
2018-03-11T11:47:54.469Z,2.90
2018-03-11T11:50:26.032Z,3.46
2018-03-11T11:52:53.484Z,3.70
2018-03-11T11:55:21.003Z,3.50
2018-03-11T11:57:48.613Z,3.27
2018-03-11T12:00:16.186Z,3.10
2018-03-11T12:02:43.628Z,3.37
2018-03-11T12:05:11.098Z,2.73
2018-03-11T12:07:38.560Z,3.60
2018-03-11T12:10:07.752Z,3.10
2018-03-11T12:12:35.315Z,3.23
2018-03-11T12:15:04.297Z,3.17
2018-03-11T12:17:31.900Z,3.08
2018-03-11T12:19:59.364Z,3.80
2018-03-11T12:22:27.144Z,2.60
2018-03-11T12:24:54.579Z,3.90
2018-03-11T12:27:22.834Z,3.00
2018-03-11T12:29:50.876Z,2.65
2018-03-11T12:32:19.864Z,3.03
2018-03-11T12:34:47.432Z,2.70
2018-03-11T12:37:15.796Z,3.13
2018-03-11T12:39:43.252Z,2.60
2018-03-11T12:42:10.717Z,2.85
2018-03-11T12:44:38.200Z,2.83
2018-03-11T12:47:05.708Z,2.75
2018-03-11T12:49:33.180Z,2.50
2018-03-11T12:52:00.673Z,2.67
2018-03-11T12:54:29.029Z,3.25
2018-03-11T12:56:56.469Z,3.07
2018-03-11T12:59:23.957Z,2.70
2018-03-11T13:01:51.463Z,2.30
2018-03-11T13:04:18.944Z,2.15
2018-03-11T13:06:46.394Z,2.53
2018-03-11T13:09:13.908Z,2.93
2018-03-11T13:11:41.352Z,2.80
2018-03-11T13:14:08.808Z,2.60
2018-03-11T13:16:37.957Z,2.90
2018-03-11T13:19:06.308Z,2.78
2018-03-11T13:21:34.509Z,2.58
2018-03-11T13:24:03.033Z,5.10
2018-03-11T13:26:30.504Z,2.90
2018-03-11T13:28:58.068Z,6.95
2018-03-11T13:31:26.569Z,2.70
2018-03-11T13:34:06.045Z,3.30
2018-03-11T13:36:33.642Z,3.17
2018-03-11T13:39:12.860Z,3.27
2018-03-11T13:41:41.341Z,3.10
2018-03-11T13:44:10.497Z,2.87
2018-03-11T13:46:49.970Z,3.10
2018-03-11T13:49:18.885Z,4.67
2018-03-11T13:51:59.409Z,2.67
2018-03-11T13:54:26.896Z,4.70
2018-03-11T13:57:06.165Z,2.63
2018-03-11T13:59:33.976Z,2.72
2018-03-11T14:02:01.432Z,2.60
2018-03-11T14:04:29.083Z,2.50
2018-03-11T14:06:57.470Z,2.87
2018-03-11T14:09:24.909Z,2.23
2018-03-11T14:11:52.480Z,3.43
2018-03-11T14:14:19.938Z,2.55
2018-03-11T14:16:47.405Z,2.70
2018-03-11T14:19:15.168Z,2.30
2018-03-11T14:21:43.557Z,2.83
2018-03-11T14:24:14.736Z,2.60
2018-03-11T14:26:42.207Z,2.70
2018-03-11T14:29:09.650Z,2.20
2018-03-11T14:31:37.286Z,2.30
2018-03-11T14:34:04.724Z,1.80
2018-03-11T14:36:33.100Z,3.53
2018-03-11T14:39:00.569Z,2.42
2018-03-11T14:41:28.016Z,2.37
2018-03-11T14:43:55.568Z,2.40
2018-03-11T14:46:23.033Z,2.67
2018-03-11T14:48:50.489Z,2.57
2018-03-11T14:51:17.957Z,2.43
2018-03-11T14:53:45.391Z,2.70
2018-03-11T14:56:12.870Z,2.83
2018-03-11T14:58:40.308Z,2.70
2018-03-11T15:01:07.771Z,2.90
2018-03-11T15:03:36.065Z,3.50
2018-03-11T15:06:03.516Z,3.97
2018-03-11T15:08:35.364Z,3.03
2018-03-11T15:11:02.815Z,3.57
2018-03-11T15:13:31.200Z,2.67
2018-03-11T15:15:58.645Z,4.73
2018-03-11T15:18:26.121Z,3.23
2018-03-11T15:20:53.561Z,2.90
2018-03-11T15:23:21.016Z,4.00
2018-03-11T15:25:48.576Z,3.35
2018-03-11T15:28:16.021Z,2.43
2018-03-11T15:30:43.473Z,2.37
2018-03-11T15:33:11.073Z,3.27
2018-03-11T15:35:39.128Z,2.60
2018-03-11T15:38:06.592Z,2.35
2018-03-11T15:40:34.084Z,2.50
2018-03-11T15:43:01.578Z,3.13
2018-03-11T15:45:29.065Z,3.05
2018-03-11T15:47:56.841Z,3.27
2018-03-11T15:50:24.297Z,3.35
2018-03-11T15:52:51.740Z,2.70
2018-03-11T15:55:19.235Z,3.97
2018-03-11T15:57:48.368Z,2.90
2018-03-11T16:00:15.830Z,4.70
2018-03-11T16:02:43.309Z,4.50
2018-03-11T16:05:10.845Z,3.10
2018-03-11T16:07:38.321Z,2.73
2018-03-11T16:10:09.830Z,2.63
2018-03-11T16:12:37.275Z,3.37
2018-03-11T16:15:04.797Z,3.67
2018-03-11T16:17:32.196Z,3.03
2018-03-11T16:19:59.681Z,3.00
2018-03-11T16:22:27.141Z,3.03
2018-03-11T16:24:57.897Z,4.03
2018-03-11T16:27:25.562Z,3.53
2018-03-11T16:29:53.162Z,4.13
2018-03-11T16:32:21.022Z,4.30
2018-03-11T16:34:48.611Z,4.33
2018-03-11T16:37:16.072Z,3.55
2018-03-11T16:39:43.520Z,3.03
2018-03-11T16:42:10.999Z,2.63
2018-03-11T16:44:38.476Z,5.07
2018-03-11T16:47:06.109Z,3.27
2018-03-11T16:49:35.273Z,4.10
2018-03-11T16:52:02.728Z,4.70
2018-03-11T16:54:30.181Z,4.13
2018-03-11T16:56:57.917Z,32.60
2018-03-11T16:59:25.395Z,5.60
2018-03-11T17:01:54.392Z,4.40
2018-03-11T17:04:21.881Z,5.67
2018-03-11T17:06:49.440Z,4.87
2018-03-11T17:09:16.884Z,4.20
2018-03-11T17:11:48.813Z,4.07
2018-03-11T17:14:16.256Z,3.97
2018-03-11T17:16:43.747Z,5.03
2018-03-11T17:19:11.213Z,4.83
2018-03-11T17:21:38.824Z,4.83
2018-03-11T17:24:06.277Z,5.90
2018-03-11T17:26:37.840Z,5.20
2018-03-11T17:29:05.284Z,4.60
2018-03-11T17:31:32.961Z,5.17
2018-03-11T17:34:00.557Z,4.90
2018-03-11T17:36:28.128Z,6.28
2018-03-11T17:38:56.381Z,6.00
2018-03-11T17:41:23.812Z,4.50
2018-03-11T17:43:52.172Z,5.10
2018-03-11T17:46:19.693Z,5.17
2018-03-11T17:48:47.528Z,5.90
2018-03-11T17:51:15.352Z,5.47
2018-03-11T17:53:42.776Z,5.83
2018-03-11T17:56:11.940Z,6.60
2018-03-11T17:58:39.392Z,5.30
2018-03-11T18:01:06.828Z,6.27
2018-03-11T18:03:34.305Z,6.80
2018-03-11T18:06:01.747Z,11.97
2018-03-11T18:08:29.229Z,10.07
2018-03-11T18:10:56.668Z,9.80
2018-03-11T18:13:29.741Z,7.93
2018-03-11T18:15:57.178Z,6.87
2018-03-11T18:18:25.463Z,7.85
2018-03-11T18:20:52.941Z,7.47
2018-03-11T18:23:21.580Z,7.33
2018-03-11T18:25:50.632Z,7.60
2018-03-11T18:28:18.093Z,9.63
2018-03-11T18:30:45.621Z,7.22
2018-03-11T18:33:14.794Z,8.23
2018-03-11T18:35:42.269Z,7.07
2018-03-11T18:38:09.733Z,6.28
2018-03-11T18:40:37.198Z,7.30
2018-03-11T18:43:04.649Z,7.40
2018-03-11T18:45:32.117Z,7.30
2018-03-11T18:47:59.566Z,8.43
2018-03-11T18:50:27.028Z,7.50
2018-03-11T18:52:54.507Z,7.70
2018-03-11T18:55:24.047Z,7.33
2018-03-11T18:57:56.175Z,6.60
2018-03-11T19:00:23.779Z,6.32
2018-03-11T19:02:52.028Z,6.63
2018-03-11T19:05:19.485Z,6.53
2018-03-11T19:07:46.953Z,7.87
2018-03-11T19:10:17.091Z,5.90
2018-03-11T19:12:45.340Z,6.87
2018-03-11T19:15:13.022Z,7.53
2018-03-11T19:17:41.228Z,9.20
2018-03-11T19:20:08.844Z,7.20
2018-03-11T19:22:36.757Z,7.80
2018-03-11T19:25:04.222Z,6.97
2018-03-11T19:27:31.660Z,6.68
2018-03-11T19:29:59.133Z,7.80
2018-03-11T19:32:26.588Z,7.00
2018-03-11T19:34:54.063Z,7.13
2018-03-11T19:37:22.421Z,6.20
2018-03-11T19:39:49.894Z,7.40
2018-03-11T19:42:17.385Z,8.40
2018-03-11T19:44:45.673Z,7.43
2018-03-11T19:47:13.964Z,6.67
2018-03-11T19:49:41.698Z,6.00
2018-03-11T19:52:10.081Z,6.90
2018-03-11T19:54:37.538Z,9.33
2018-03-11T19:57:05.298Z,6.70
2018-03-11T19:59:32.768Z,7.00
2018-03-11T20:02:00.241Z,8.23
2018-03-11T20:04:28.282Z,9.68
2018-03-11T20:06:55.752Z,9.32
2018-03-11T20:09:24.134Z,7.10
2018-03-11T20:11:51.627Z,7.30
2018-03-11T20:14:22.743Z,10.00
2018-03-11T20:16:50.334Z,10.67
2018-03-11T20:19:17.937Z,8.97
2018-03-11T20:21:45.404Z,7.73
2018-03-11T20:24:13.780Z,8.60
2018-03-11T20:26:41.255Z,10.87
2018-03-11T20:29:12.132Z,12.45
2018-03-11T20:31:39.590Z,10.53
2018-03-11T20:34:07.497Z,10.10
2018-03-11T20:36:34.989Z,9.57
2018-03-11T20:39:03.137Z,9.12
2018-03-11T20:41:30.597Z,9.53
2018-03-11T20:43:58.063Z,10.10
2018-03-11T20:46:25.801Z,9.10
2018-03-11T20:48:53.465Z,8.25
2018-03-11T20:51:20.871Z,8.37
2018-03-11T20:53:48.332Z,8.57
2018-03-11T20:56:16.564Z,8.35
2018-03-11T20:58:44.196Z,9.30
2018-03-11T21:01:11.640Z,9.20
2018-03-11T21:03:39.132Z,8.03
2018-03-11T21:06:06.580Z,9.40
2018-03-11T21:08:34.060Z,7.93
2018-03-11T21:11:01.508Z,8.07
2018-03-11T21:13:30.652Z,9.38
2018-03-11T21:15:58.252Z,9.20
2018-03-11T21:18:25.704Z,9.30
2018-03-11T21:20:53.237Z,10.50
2018-03-11T21:23:20.689Z,9.33
2018-03-11T21:25:48.175Z,10.38
2018-03-11T21:28:16.419Z,8.50
2018-03-11T21:30:43.884Z,8.38
2018-03-11T21:33:11.490Z,10.60
2018-03-11T21:35:38.992Z,10.48
2018-03-11T21:38:06.452Z,9.55
2018-03-11T21:40:33.905Z,8.50
2018-03-11T21:43:01.877Z,8.97
2018-03-11T21:45:29.328Z,9.30
2018-03-11T21:47:57.752Z,9.10
2018-03-11T21:50:25.373Z,10.00
2018-03-11T21:52:54.205Z,11.20
2018-03-11T21:55:23.377Z,9.00
2018-03-11T21:57:50.849Z,8.17
2018-03-11T22:00:22.647Z,9.90
2018-03-11T22:02:50.111Z,8.80
2018-03-11T22:05:17.577Z,8.77
2018-03-11T22:07:45.057Z,10.83
2018-03-11T22:10:12.512Z,11.27
2018-03-11T22:12:39.956Z,8.90
2018-03-11T22:15:07.418Z,8.38
2018-03-11T22:17:34.859Z,9.63
2018-03-11T22:20:02.333Z,9.50
2018-03-11T22:22:30.708Z,8.82
2018-03-11T22:24:59.072Z,8.50
2018-03-11T22:27:26.544Z,9.02
2018-03-11T22:29:53.985Z,8.40
2018-03-11T22:32:21.491Z,8.63
2018-03-11T22:34:48.949Z,9.02
2018-03-11T22:37:16.385Z,7.87
2018-03-11T22:39:44.786Z,9.37
2018-03-11T22:42:12.239Z,8.10
2018-03-11T22:44:40.452Z,9.30
2018-03-11T22:47:09.584Z,8.80
2018-03-11T22:49:37.040Z,8.80
2018-03-11T22:52:04.529Z,9.00
2018-03-11T22:54:31.968Z,8.07
2018-03-11T22:56:59.445Z,8.20
2018-03-11T22:59:26.904Z,8.80
2018-03-11T23:01:58.056Z,10.10
2018-03-11T23:04:25.704Z,8.03
2018-03-11T23:06:53.201Z,9.50
2018-03-11T23:09:20.648Z,8.65
2018-03-11T23:11:48.111Z,9.48
2018-03-11T23:14:15.565Z,10.00
2018-03-11T23:16:45.840Z,8.20
2018-03-11T23:19:28.849Z,8.37
2018-03-11T23:21:56.354Z,8.87
2018-03-11T23:24:23.828Z,9.40
2018-03-11T23:26:51.262Z,9.07
2018-03-11T23:29:19.742Z,9.40
2018-03-11T23:31:47.187Z,8.23
2018-03-11T23:34:18.335Z,8.73
2018-03-11T23:36:45.785Z,9.60
2018-03-11T23:39:13.264Z,9.03
2018-03-11T23:41:40.721Z,8.13
2018-03-11T23:44:09.109Z,9.93
2018-03-11T23:46:36.576Z,8.60
2018-03-11T23:49:04.164Z,9.00
2018-03-11T23:51:31.760Z,8.43
2018-03-11T23:53:59.217Z,8.03
2018-03-11T23:56:26.688Z,7.70
2018-03-11T23:58:54.136Z,8.57
